Wednesday, November 22, 2017, 11:40 AM EST
Back to Local

KHPN, White Plains Westchester

Location: Greenwich, NY, United States Lat: 41.067
Local Time: 11:40 AM EST (16:40 GMT) Lon: -73.7
Time Zone: US/Eastern Elev: 439 ft

Show me the last for .
Show Decoded

2017-11-22 10:56 METAR KHPN 221556Z 34007KT 10SM FEW025 BKN048 09/07 A2986 RMK AO2 SLP114
                 T00940072 =
2017-11-22 09:56 METAR KHPN 221456Z 31010KT 10SM FEW010 SCT075 BKN100 10/09 A2988 RMK AO2 RAE53
                 SLP120 P0003 60008 T01000089 58006 =
2017-11-22 08:56 METAR KHPN 221356Z 28004KT 5SM -RA BR FEW017 BKN070 OVC085 10/09 A2989 RMK AO2
                 SLP124 P0003 T01000089 =
2017-11-22 07:56 METAR KHPN 221256Z 00000KT 4SM -RA BR BKN015 OVC065 09/08 A2989 RMK AO2 RAB16
                 SLP124 P0002 T00890078 =
2017-11-22 06:56 METAR KHPN 221156Z 14004KT 10SM BKN038 OVC110 08/07 A2990 RMK AO2 DZE52 SLP126
                 P0000 60000 T00830067 10089 20061 55017 =
2017-11-22 05:56 METAR KHPN 221056Z 00000KT 10SM -DZ SCT036 BKN050 OVC090 08/06 A2989 RMK AO2
                 DZB49 SLP124 P0000 T00830061 =
2017-11-22 04:56 METAR KHPN 220956Z 00000KT 10SM SCT037 BKN110 07/06 A2992 RMK AO2 SLP135
                 T00720056 =
2017-11-22 03:56 METAR KHPN 220856Z 00000KT 10SM BKN080 07/04 A2994 RMK AO2 SLP142 T00670044
                 58016 =
2017-11-22 02:56 METAR KHPN 220756Z 00000KT 10SM CLR 06/04 A2996 RMK AO2 SLP148 T00610044 =
2017-11-22 01:56 METAR KHPN 220656Z 00000KT 10SM CLR 07/04 A2998 RMK AO2 SLP155 T00720039 =
2017-11-22 00:56 METAR KHPN 220556Z 00000KT 10SM CLR 07/04 A2999 RMK AO2 SLP158 T00720039 10094
                 20056 58013 =
2017-11-21 23:56 METAR KHPN 220456Z 00000KT 10SM CLR 06/04 A3001 RMK AO2 SLP165 T00560039
                 401330017 =
2017-11-21 22:56 METAR KHPN 220356Z 00000KT 10SM CLR 07/03 A3002 RMK AO2 SLP170 T00670028 =
2017-11-21 21:56 METAR KHPN 220256Z 17004KT 10SM CLR 07/03 A3003 RMK AO2 SLP172 T00670028 51003 =
2017-11-21 20:56 METAR KHPN 220156Z VRB03KT 10SM CLR 08/03 A3003 RMK AO2 SLP172 T00830033 =
2017-11-21 19:56 METAR KHPN 220056Z VRB05KT 10SM CLR 09/04 A3003 RMK AO2 SLP174 T00890044 =
2017-11-21 18:56 METAR KHPN 212356Z 18005KT 10SM CLR 09/05 A3002 RMK AO2 SLP170 T00890050 10133
                 20089 51010 =
2017-11-21 17:56 METAR KHPN 212256Z 17005KT 10SM CLR 09/04 A3002 RMK AO2 SLP170 T00940039 =
2017-11-21 16:56 METAR KHPN 212156Z AUTO 18006KT 10SM CLR 11/00 A3001 RMK AO2 SLP165 T01060000 =
2017-11-21 15:56 METAR KHPN 212056Z 17006KT 10SM CLR 12/02 A2999 RMK AO2 SLP160 T01170022 58014 =
2017-11-21 14:56 METAR KHPN 211956Z 19008G14KT 10SM CLR 13/M02 A3001 RMK AO2 SLP165 T01331022 =
2017-11-21 13:56 METAR KHPN 211856Z 22008G14KT 10SM CLR 13/M01 A3002 RMK AO2 SLP168 T01281011 =
2017-11-21 12:56 METAR KHPN 211756Z 21009G14KT 10SM CLR 12/M02 A3003 RMK AO2 SLP173 T01221017
                 10128 20033 56024 =
2017-11-21 11:56 METAR KHPN 211656Z 20010G18KT 160V240 10SM CLR 12/M01 A3005 RMK AO2 SLP179
                 T01171011 =

Support USWX by starting your Amazon purchase here.